Time;durP1;ratioP1;P1;durP2;ratioP2;P2;SDS_P1;SDS_P2;PMS_P1;PMS_P2;Temp;Humidity;BMP_temperature;BMP_pressure;BME280_temperature;BME280_humidity;BME280_pressure;Samples;Min_cycle;Max_cycle;Signal;HPM_P1;HPM_P2
2022/08/19 00:01:22;;;;;;;67.68;27.63;;;;;;;;;;5091480;28;20042;-65
2022/08/19 00:03:48;;;;;;;71.38;26.50;;;;;;;;;;5095899;28;20024;-65
2022/08/19 00:06:13;;;;;;;74.00;27.42;;;;;;;;;;5086349;28;20072;-66
2022/08/19 00:08:39;;;;;;;77.97;27.70;;;;;;;;;;5069745;28;20393;-65
2022/08/19 00:11:04;;;;;;;69.65;27.20;;;;;;;;;;5078833;28;20025;-66
2022/08/19 00:13:29;;;;;;;78.35;29.52;;;;;;;;;;5091799;28;20110;-66
2022/08/19 00:15:55;;;;;;;83.20;30.73;;;;;;;;;;5083087;28;20286;-65
2022/08/19 00:18:20;;;;;;;80.32;30.45;;;;;;;;;;5085270;28;20040;-66
2022/08/19 00:20:46;;;;;;;83.13;29.92;;;;;;;;;;5071585;28;20028;-66
2022/08/19 00:23:11;;;;;;;77.97;30.45;;;;;;;;;;5069852;28;20020;-65
2022/08/19 00:25:36;;;;;;;72.93;29.92;;;;;;;;;;5087127;28;20020;-66
2022/08/19 00:28:02;;;;;;;74.72;29.30;;;;;;;;;;5081048;28;20104;-65
2022/08/19 00:30:27;;;;;;;76.43;31.53;;;;;;;;;;5079892;28;20699;-65
2022/08/19 00:32:54;;;;;;;81.07;32.03;;;;;;;;;;5071097;28;20541;-65
2022/08/19 00:35:20;;;;;;;64.50;27.30;;;;;;;;;;5058947;28;20028;-66
2022/08/19 00:37:46;;;;;;;75.83;31.10;;;;;;;;;;5073112;28;20505;-65
2022/08/19 00:40:12;;;;;;;72.27;29.50;;;;;;;;;;5075691;28;20012;-65
2022/08/19 00:42:38;;;;;;;54.90;23.10;;;;;;;;;;5076081;28;20027;-66
2022/08/19 00:45:08;;;;;;;39.00;17.03;;;;;;;;;;5075968;28;20040;-66
2022/08/19 00:47:33;;;;;;;41.67;20.00;;;;;;;;;;5070325;28;20052;-66
2022/08/19 00:49:59;;;;;;;54.00;21.17;;;;;;;;;;5075999;28;20133;-66
2022/08/19 00:52:28;;;;;;;50.35;20.70;;;;;;;;;;5078608;28;20057;-65
2022/08/19 00:54:54;;;;;;;55.90;23.10;;;;;;;;;;5076890;28;20047;-66
2022/08/19 00:57:27;;;;;;;67.50;26.73;;;;;;;;;;5078689;28;20461;-66
2022/08/19 00:59:54;;;;;;;76.37;29.93;;;;;;;;;;5079096;28;20062;-65
2022/08/19 01:02:19;;;;;;;70.27;29.07;;;;;;;;;;5084539;28;20086;-66
2022/08/19 01:04:44;;;;;;;72.00;29.10;;;;;;;;;;5077785;28;20024;-66
2022/08/19 01:07:09;;;;;;;82.37;32.17;;;;;;;;;;5086194;28;20017;-65
2022/08/19 01:09:35;;;;;;;70.00;30.47;;;;;;;;;;5076264;28;20020;-66
2022/08/19 01:12:00;;;;;;;76.80;28.90;;;;;;;;;;5079975;28;20036;-66
2022/08/19 01:14:26;;;;;;;75.10;27.83;;;;;;;;;;5082957;28;20438;-65
2022/08/19 01:16:54;;;;;;;77.70;27.93;;;;;;;;;;5087519;28;20102;-65
2022/08/19 01:19:24;;;;;;;71.20;27.53;;;;;;;;;;5082469;28;20012;-66
2022/08/19 01:22:00;;;;;;;99.30;33.00;;;;;;;;;;5089919;28;20062;-66
2022/08/19 01:24:26;;;;;;;91.03;31.80;;;;;;;;;;5073880;28;20025;-66
2022/08/19 01:26:51;;;;;;;119.53;37.47;;;;;;;;;;5084743;28;20102;-66
2022/08/19 01:29:16;;;;;;;123.07;39.27;;;;;;;;;;5082932;28;20017;-65
2022/08/19 01:31:42;;;;;;;120.67;40.50;;;;;;;;;;5082064;28;20012;-66
2022/08/19 01:34:07;;;;;;;95.97;35.10;;;;;;;;;;5077813;28;20016;-66
2022/08/19 01:36:41;;;;;;;87.93;33.43;;;;;;;;;;5084950;28;20108;-66
2022/08/19 01:39:08;;;;;;;102.57;35.13;;;;;;;;;;5072912;28;20017;-66
2022/08/19 01:41:34;;;;;;;94.73;33.23;;;;;;;;;;5094128;28;20019;-65
2022/08/19 01:44:00;;;;;;;101.43;35.73;;;;;;;;;;5074315;28;20058;-65
2022/08/19 01:46:26;;;;;;;90.90;32.80;;;;;;;;;;5077169;28;20024;-65
2022/08/19 01:48:51;;;;;;;94.67;33.00;;;;;;;;;;5074119;28;20031;-65
2022/08/19 01:51:16;;;;;;;92.13;30.10;;;;;;;;;;5090205;28;20020;-65
2022/08/19 01:53:42;;;;;;;78.33;27.20;;;;;;;;;;5079474;28;20050;-65
2022/08/19 01:56:07;;;;;;;77.63;25.80;;;;;;;;;;5079817;28;20369;-65
2022/08/19 01:58:41;;;;;;;81.93;27.97;;;;;;;;;;5083937;28;20444;-65
2022/08/19 02:01:06;;;;;;;88.17;28.73;;;;;;;;;;5075314;28;20047;-66
2022/08/19 02:03:32;;;;;;;87.53;28.67;;;;;;;;;;5085116;28;20024;-66
2022/08/19 02:05:59;;;;;;;100.80;34.57;;;;;;;;;;5077840;28;20013;-65
2022/08/19 02:08:25;;;;;;;101.17;33.37;;;;;;;;;;5085464;28;20364;-66
2022/08/19 02:10:50;;;;;;;89.93;32.63;;;;;;;;;;5081950;28;20182;-66
2022/08/19 02:13:16;;;;;;;76.10;29.70;;;;;;;;;;5084058;28;20134;-65
2022/08/19 02:15:41;;;;;;;74.53;29.87;;;;;;;;;;5082479;28;20106;-65
2022/08/19 02:18:07;;;;;;;49.37;23.63;;;;;;;;;;5072563;28;20119;-66
2022/08/19 02:20:32;;;;;;;77.30;25.63;;;;;;;;;;5078701;28;20043;-66
2022/08/19 02:22:57;;;;;;;135.53;30.67;;;;;;;;;;5072476;28;20029;-66
2022/08/19 02:25:22;;;;;;;71.73;27.00;;;;;;;;;;5074766;28;20056;-65
2022/08/19 02:27:48;;;;;;;91.07;30.00;;;;;;;;;;5075858;28;20024;-66
2022/08/19 02:30:18;;;;;;;93.90;33.17;;;;;;;;;;5067075;28;20036;-65
2022/08/19 02:32:44;;;;;;;104.93;34.87;;;;;;;;;;5085972;28;20038;-65
2022/08/19 02:35:09;;;;;;;142.07;36.23;;;;;;;;;;5077852;28;20024;-65
2022/08/19 02:40:18;;;;;;;90.73;31.63;;;;;;;;;;5073930;28;20526;-66
2022/08/19 02:42:44;;;;;;;173.63;36.97;;;;;;;;;;5073900;28;20020;-65
2022/08/19 02:45:10;;;;;;;267.33;37.80;;;;;;;;;;5070900;28;20483;-65
2022/08/19 02:47:35;;;;;;;291.80;35.40;;;;;;;;;;5076012;28;20020;-65
2022/08/19 02:50:02;;;;;;;228.33;31.53;;;;;;;;;;5082526;28;20020;-66
2022/08/19 02:52:27;;;;;;;282.50;33.63;;;;;;;;;;5090176;28;20454;-65
2022/08/19 02:54:53;;;;;;;241.97;32.30;;;;;;;;;;5073120;28;20062;-66
2022/08/19 02:57:18;;;;;;;182.53;32.33;;;;;;;;;;5070943;28;20036;-65
2022/08/19 02:59:43;;;;;;;95.70;30.43;;;;;;;;;;5077461;28;20028;-65
2022/08/19 03:02:08;;;;;;;105.00;32.70;;;;;;;;;;5070742;28;20020;-66
2022/08/19 03:04:34;;;;;;;111.43;33.33;;;;;;;;;;5086145;28;20716;-66
2022/08/19 03:06:59;;;;;;;133.30;38.20;;;;;;;;;;5073455;28;20033;-66
2022/08/19 03:09:24;;;;;;;138.30;42.13;;;;;;;;;;5076500;28;20032;-66
2022/08/19 03:11:50;;;;;;;154.73;41.93;;;;;;;;;;5076721;28;20445;-66
2022/08/19 03:14:15;;;;;;;150.60;42.47;;;;;;;;;;5080209;28;20067;-66
2022/08/19 03:16:42;;;;;;;154.57;42.80;;;;;;;;;;5080331;28;20091;-65
2022/08/19 03:19:08;;;;;;;182.50;44.80;;;;;;;;;;5076408;28;20023;-66
2022/08/19 03:21:33;;;;;;;194.77;45.03;;;;;;;;;;5081953;28;20032;-66
2022/08/19 03:24:00;;;;;;;218.63;44.37;;;;;;;;;;5078621;28;20016;-66
2022/08/19 03:26:26;;;;;;;190.03;43.20;;;;;;;;;;5105305;28;20023;-66
2022/08/19 03:28:51;;;;;;;208.63;43.80;;;;;;;;;;5071648;28;20032;-65
2022/08/19 03:31:17;;;;;;;215.87;45.13;;;;;;;;;;5087251;28;20030;-65
2022/08/19 03:33:43;;;;;;;205.80;43.47;;;;;;;;;;5075994;28;20020;-66
2022/08/19 03:36:10;;;;;;;204.70;42.40;;;;;;;;;;5082811;28;20035;-66
2022/08/19 03:38:44;;;;;;;191.90;40.23;;;;;;;;;;5079083;28;20015;-66
2022/08/19 03:41:11;;;;;;;210.47;40.77;;;;;;;;;;5085549;28;20110;-65
2022/08/19 03:43:37;;;;;;;226.53;38.67;;;;;;;;;;5075619;28;20480;-66
2022/08/19 03:46:06;;;;;;;182.90;38.27;;;;;;;;;;5077816;28;20024;-66
2022/08/19 03:48:32;;;;;;;173.67;37.37;;;;;;;;;;5077478;28;20027;-66
2022/08/19 03:50:59;;;;;;;252.57;38.17;;;;;;;;;;5078901;28;20020;-66
2022/08/19 03:53:25;;;;;;;156.70;36.10;;;;;;;;;;5071785;28;20036;-66
2022/08/19 03:55:51;;;;;;;305.13;38.70;;;;;;;;;;5084119;28;20024;-66
2022/08/19 03:58:16;;;;;;;291.47;40.17;;;;;;;;;;5079866;28;20114;-66
2022/08/19 04:00:42;;;;;;;318.70;40.97;;;;;;;;;;5075944;28;20050;-66
2022/08/19 04:03:07;;;;;;;190.03;37.27;;;;;;;;;;5078933;28;20154;-66
2022/08/19 04:05:32;;;;;;;271.10;36.33;;;;;;;;;;5072165;28;20028;-66
2022/08/19 04:07:58;;;;;;;355.27;36.83;;;;;;;;;;5073341;28;20112;-66
2022/08/19 04:10:24;;;;;;;199.97;36.37;;;;;;;;;;5076008;28;20024;-66
2022/08/19 04:12:49;;;;;;;299.63;37.13;;;;;;;;;;5072655;28;20032;-66
2022/08/19 04:15:15;;;;;;;290.77;38.97;;;;;;;;;;5076422;28;20016;-66
2022/08/19 04:17:40;;;;;;;329.93;37.50;;;;;;;;;;5063017;28;20027;-66
2022/08/19 04:20:05;;;;;;;333.63;38.57;;;;;;;;;;5079464;28;20033;-66
2022/08/19 04:22:31;;;;;;;355.93;38.63;;;;;;;;;;5078199;28;20508;-66
2022/08/19 04:24:56;;;;;;;229.13;35.70;;;;;;;;;;5072446;28;20070;-66
2022/08/19 04:27:21;;;;;;;420.03;40.87;;;;;;;;;;5078806;28;20104;-66
2022/08/19 04:29:47;;;;;;;567.83;44.40;;;;;;;;;;5074655;28;20095;-66
2022/08/19 04:32:15;;;;;;;289.97;38.27;;;;;;;;;;5084530;28;20244;-66
2022/08/19 04:34:40;;;;;;;345.83;38.60;;;;;;;;;;5084197;28;20028;-66
2022/08/19 04:37:11;;;;;;;364.33;36.93;;;;;;;;;;5089949;28;20498;-66
2022/08/19 04:42:39;;;;;;;321.37;35.10;;;;;;;;;;5081471;28;20503;-65
2022/08/19 04:45:11;;;;;;;267.83;34.00;;;;;;;;;;5080512;28;20012;-66
2022/08/19 04:47:37;;;;;;;373.83;34.90;;;;;;;;;;5085496;28;20023;-66
2022/08/19 04:50:03;;;;;;;301.00;33.70;;;;;;;;;;5081679;28;20092;-66
2022/08/19 04:52:31;;;;;;;252.70;31.23;;;;;;;;;;5085873;28;20471;-67
2022/08/19 04:54:56;;;;;;;354.37;30.97;;;;;;;;;;5073727;28;20030;-66
2022/08/19 04:57:21;;;;;;;204.07;28.73;;;;;;;;;;5078562;28;20509;-66
2022/08/19 04:59:46;;;;;;;201.93;26.20;;;;;;;;;;5075944;28;20468;-67
2022/08/19 05:02:12;;;;;;;150.90;25.33;;;;;;;;;;5086403;28;20117;-66
2022/08/19 05:04:39;;;;;;;292.70;25.23;;;;;;;;;;5092339;28;20028;-66
2022/08/19 05:07:05;;;;;;;314.30;28.03;;;;;;;;;;5082619;28;20024;-66
2022/08/19 05:09:31;;;;;;;201.75;26.38;;;;;;;;;;5075149;28;20119;-66
2022/08/19 05:11:56;;;;;;;250.55;27.08;;;;;;;;;;5082879;28;20151;-66
2022/08/19 05:14:22;;;;;;;186.93;25.57;;;;;;;;;;5082056;28;20095;-66
2022/08/19 05:16:48;;;;;;;246.00;25.98;;;;;;;;;;5078487;28;20039;-66
2022/08/19 05:24:41;;;;;;;276.30;22.08;;;;;;;;;;5080827;28;20043;-66
2022/08/19 05:27:06;;;;;;;239.93;22.00;;;;;;;;;;5090134;28;20036;-66
2022/08/19 05:29:34;;;;;;;257.73;23.05;;;;;;;;;;5084366;28;20054;-66
2022/08/19 05:31:59;;;;;;;160.23;22.52;;;;;;;;;;5080994;28;20530;-66
2022/08/19 05:34:25;;;;;;;138.10;19.75;;;;;;;;;;5077365;28;20025;-66
2022/08/19 05:36:56;;;;;;;72.05;18.35;;;;;;;;;;5087444;28;20376;-66
2022/08/19 05:39:22;;;;;;;73.88;18.35;;;;;;;;;;5086545;28;20549;-66
2022/08/19 05:41:49;;;;;;;82.88;15.48;;;;;;;;;;5089247;28;20051;-66
2022/08/19 05:44:16;;;;;;;66.82;15.73;;;;;;;;;;5083466;28;20516;-66
2022/08/19 05:46:42;;;;;;;35.13;13.30;;;;;;;;;;5078557;28;20025;-65
2022/08/19 05:49:08;;;;;;;63.17;13.50;;;;;;;;;;5061445;28;20020;-66
2022/08/19 05:51:34;;;;;;;41.63;13.45;;;;;;;;;;5074851;28;20051;-66
2022/08/19 05:54:00;;;;;;;74.13;14.13;;;;;;;;;;5075494;28;20032;-65
2022/08/19 05:56:26;;;;;;;42.97;14.85;;;;;;;;;;5077782;28;20020;-66
2022/08/19 05:58:52;;;;;;;45.78;14.52;;;;;;;;;;5082183;28;20035;-66
2022/08/19 06:01:18;;;;;;;50.97;13.32;;;;;;;;;;5074654;28;20799;-65
2022/08/19 06:03:44;;;;;;;38.17;15.25;;;;;;;;;;5075911;28;20024;-66
2022/08/19 06:06:10;;;;;;;64.47;11.90;;;;;;;;;;5081791;28;21513;-65
2022/08/19 06:08:37;;;;;;;42.47;14.07;;;;;;;;;;5077119;28;20036;-66
2022/08/19 06:11:18;;;;;;;30.95;12.45;;;;;;;;;;5077573;28;20051;-65
2022/08/19 06:13:46;;;;;;;54.50;12.35;;;;;;;;;;5078760;28;20036;-65
2022/08/19 06:16:12;;;;;;;23.40;11.32;;;;;;;;;;5074000;28;20094;-66
2022/08/19 06:18:37;;;;;;;20.42;9.75;;;;;;;;;;5077358;28;20490;-66
2022/08/19 06:21:03;;;;;;;14.48;9.75;;;;;;;;;;5087016;28;20483;-66
2022/08/19 06:23:29;;;;;;;27.45;9.93;;;;;;;;;;5086393;28;20020;-66
2022/08/19 06:25:54;;;;;;;18.52;9.82;;;;;;;;;;5080697;28;20024;-66
2022/08/19 06:28:20;;;;;;;21.02;9.00;;;;;;;;;;5080491;28;20516;-66
2022/08/19 06:30:45;;;;;;;17.05;8.77;;;;;;;;;;5093578;28;20388;-66
2022/08/19 06:33:11;;;;;;;12.88;8.27;;;;;;;;;;5090206;28;20012;-66
2022/08/19 06:35:39;;;;;;;11.95;8.23;;;;;;;;;;5089019;28;20054;-65
2022/08/19 06:38:05;;;;;;;27.58;8.85;;;;;;;;;;5072805;28;20020;-65
2022/08/19 06:40:30;;;;;;;23.20;9.15;;;;;;;;;;5075016;28;20028;-66
2022/08/19 06:42:56;;;;;;;19.90;10.95;;;;;;;;;;5110536;28;20047;-65
2022/08/19 06:45:24;;;;;;;25.90;8.90;;;;;;;;;;5102238;28;20028;-65
2022/08/19 06:47:51;;;;;;;31.42;9.18;;;;;;;;;;5090180;28;20077;-65
2022/08/19 06:50:16;;;;;;;14.63;9.80;;;;;;;;;;5086425;28;20092;-65
2022/08/19 06:52:41;;;;;;;17.63;11.23;;;;;;;;;;5071685;28;20113;-65
2022/08/19 06:55:07;;;;;;;17.67;12.32;;;;;;;;;;5081103;28;20075;-65
2022/08/19 06:57:32;;;;;;;64.07;12.65;;;;;;;;;;5080150;28;20031;-65
2022/08/19 06:59:59;;;;;;;18.48;11.98;;;;;;;;;;5091730;28;20024;-65
2022/08/19 07:02:26;;;;;;;32.05;12.45;;;;;;;;;;5091879;28;20031;-65
2022/08/19 07:04:52;;;;;;;24.65;12.70;;;;;;;;;;5091736;28;20464;-65
2022/08/19 07:07:17;;;;;;;27.33;13.32;;;;;;;;;;5089538;28;20028;-65
2022/08/19 07:09:43;;;;;;;20.90;12.57;;;;;;;;;;5089417;28;20525;-65
2022/08/19 07:12:09;;;;;;;20.65;13.30;;;;;;;;;;5091120;28;20024;-65
2022/08/19 07:14:38;;;;;;;17.30;11.90;;;;;;;;;;5080269;28;20040;-65
2022/08/19 07:17:04;;;;;;;19.40;12.57;;;;;;;;;;5090447;28;20024;-65
2022/08/19 07:19:29;;;;;;;19.30;12.10;;;;;;;;;;5073118;28;20103;-65
2022/08/19 07:21:54;;;;;;;18.33;12.57;;;;;;;;;;5089890;28;20038;-65
2022/08/19 07:24:24;;;;;;;18.52;11.55;;;;;;;;;;5074722;28;20017;-65
2022/08/19 07:26:50;;;;;;;16.70;11.30;;;;;;;;;;5071589;28;20016;-65
2022/08/19 07:29:16;;;;;;;16.50;11.32;;;;;;;;;;5091152;28;20683;-65
2022/08/19 07:31:41;;;;;;;16.98;11.45;;;;;;;;;;5088689;28;20024;-65
2022/08/19 07:34:10;;;;;;;19.25;11.48;;;;;;;;;;5094823;28;20603;-65
2022/08/19 07:36:38;;;;;;;15.45;10.45;;;;;;;;;;5089850;28;20023;-65
2022/08/19 07:39:08;;;;;;;14.45;10.52;;;;;;;;;;5085675;28;20228;-65
2022/08/19 07:41:35;;;;;;;15.95;10.63;;;;;;;;;;5093052;28;20040;-65
2022/08/19 07:44:03;;;;;;;12.27;9.18;;;;;;;;;;5087915;28;20020;-65
2022/08/19 07:46:32;;;;;;;12.10;8.50;;;;;;;;;;5105777;28;20020;-65
2022/08/19 07:48:57;;;;;;;13.90;9.27;;;;;;;;;;5086842;28;20024;-66
2022/08/19 07:51:23;;;;;;;13.27;8.15;;;;;;;;;;5090400;28;20302;-65
2022/08/19 07:53:49;;;;;;;12.98;8.35;;;;;;;;;;5088717;28;20028;-65
2022/08/19 07:56:15;;;;;;;10.82;7.97;;;;;;;;;;5089036;28;20043;-65
2022/08/19 07:58:41;;;;;;;12.63;8.73;;;;;;;;;;5083072;28;20012;-65
2022/08/19 08:01:09;;;;;;;11.10;8.38;;;;;;;;;;5090965;28;20043;-66
2022/08/19 08:09:15;;;;;;;12.40;7.75;;;;;;;;;;5085933;28;20085;-65
2022/08/19 08:11:48;;;;;;;12.32;8.25;;;;;;;;;;5092528;28;20497;-65
2022/08/19 08:14:15;;;;;;;10.27;7.45;;;;;;;;;;5082933;28;20478;-65
2022/08/19 08:16:41;;;;;;;10.48;7.03;;;;;;;;;;5089704;28;20024;-65
2022/08/19 08:19:07;;;;;;;10.77;7.28;;;;;;;;;;5075009;28;20460;-65
2022/08/19 08:21:33;;;;;;;10.98;7.13;;;;;;;;;;5089383;28;20070;-65
2022/08/19 08:23:58;;;;;;;12.48;7.55;;;;;;;;;;5074535;28;20035;-65
2022/08/19 08:26:24;;;;;;;9.77;7.05;;;;;;;;;;5090893;28;20008;-65
2022/08/19 08:28:50;;;;;;;10.52;7.40;;;;;;;;;;5094053;28;20043;-65
2022/08/19 08:31:15;;;;;;;11.25;7.20;;;;;;;;;;5090682;28;20040;-65
2022/08/19 08:33:41;;;;;;;10.07;7.00;;;;;;;;;;5090579;28;20415;-65
2022/08/19 08:36:07;;;;;;;10.95;7.10;;;;;;;;;;5091950;28;20093;-65
2022/08/19 08:38:33;;;;;;;10.52;7.47;;;;;;;;;;5056382;28;20476;-65
2022/08/19 08:41:07;;;;;;;11.07;6.70;;;;;;;;;;5088191;28;20024;-65
2022/08/19 08:43:34;;;;;;;9.65;6.22;;;;;;;;;;5077983;28;20056;-65
2022/08/19 08:46:02;;;;;;;7.53;5.40;;;;;;;;;;5085171;28;20024;-65
2022/08/19 08:48:33;;;;;;;8.75;5.35;;;;;;;;;;5079246;28;20031;-65
2022/08/19 08:51:00;;;;;;;8.23;5.22;;;;;;;;;;5075160;28;20506;-65
2022/08/19 08:53:26;;;;;;;7.72;4.78;;;;;;;;;;5075474;28;20052;-65
2022/08/19 08:55:51;;;;;;;6.18;4.40;;;;;;;;;;5087082;28;20549;-65
2022/08/19 08:58:24;;;;;;;6.93;4.50;;;;;;;;;;5081586;28;20026;-65
2022/08/19 09:00:49;;;;;;;8.05;4.30;;;;;;;;;;5091106;28;20099;-65
2022/08/19 09:03:25;;;;;;;10.32;4.78;;;;;;;;;;5076508;28;20144;-65
2022/08/19 09:05:53;;;;;;;8.02;4.40;;;;;;;;;;5077272;28;20063;-65
2022/08/19 09:08:28;;;;;;;7.32;4.50;;;;;;;;;;5073227;28;20074;-65
2022/08/19 09:10:54;;;;;;;7.18;4.63;;;;;;;;;;5078628;28;20051;-65
2022/08/19 09:13:26;;;;;;;8.80;4.82;;;;;;;;;;5092672;28;20065;-67
2022/08/19 09:15:53;;;;;;;7.70;4.30;;;;;;;;;;5090117;28;20433;-65
2022/08/19 09:18:19;;;;;;;5.90;4.10;;;;;;;;;;5094130;28;20099;-65
2022/08/19 09:20:46;;;;;;;6.57;4.35;;;;;;;;;;5089127;28;20520;-65
2022/08/19 09:23:11;;;;;;;6.45;4.10;;;;;;;;;;5080875;28;20025;-65
2022/08/19 09:25:37;;;;;;;7.55;4.60;;;;;;;;;;5078183;28;20031;-65
2022/08/19 09:28:03;;;;;;;6.95;4.28;;;;;;;;;;5087624;28;20020;-65
2022/08/19 09:30:33;;;;;;;7.78;3.97;;;;;;;;;;5093569;28;20048;-65
2022/08/19 09:32:58;;;;;;;9.30;5.03;;;;;;;;;;5073851;28;20098;-65
2022/08/19 09:35:25;;;;;;;6.30;3.97;;;;;;;;;;5084493;28;20033;-65
2022/08/19 09:37:50;;;;;;;7.20;4.10;;;;;;;;;;5073279;28;20373;-65
2022/08/19 09:40:16;;;;;;;6.60;4.15;;;;;;;;;;5078815;28;20031;-66
2022/08/19 09:42:43;;;;;;;6.28;4.22;;;;;;;;;;5086504;28;20024;-65
2022/08/19 09:45:08;;;;;;;6.40;4.07;;;;;;;;;;5088209;28;20023;-65
2022/08/19 09:47:37;;;;;;;6.25;3.58;;;;;;;;;;5081397;28;20492;-65
2022/08/19 09:50:03;;;;;;;7.03;3.47;;;;;;;;;;5082407;28;20499;-65
2022/08/19 09:52:28;;;;;;;6.25;3.20;;;;;;;;;;5083643;28;20036;-66
2022/08/19 09:54:53;;;;;;;5.18;3.30;;;;;;;;;;5084556;28;20065;-65
2022/08/19 09:57:19;;;;;;;7.38;3.80;;;;;;;;;;5080975;28;20016;-65
2022/08/19 09:59:44;;;;;;;5.78;3.30;;;;;;;;;;5079064;28;20407;-66
2022/08/19 10:02:10;;;;;;;5.70;3.05;;;;;;;;;;5093026;28;20044;-65
2022/08/19 10:07:19;;;;;;;4.40;2.50;;;;;;;;;;5078965;28;20604;-65
2022/08/19 10:09:46;;;;;;;4.95;2.55;;;;;;;;;;5091982;28;20059;-65
2022/08/19 10:12:12;;;;;;;5.43;2.55;;;;;;;;;;5073109;28;20031;-66
2022/08/19 10:14:38;;;;;;;7.72;2.40;;;;;;;;;;5074172;28;20021;-65
2022/08/19 10:17:03;;;;;;;5.95;2.30;;;;;;;;;;5074022;28;20043;-66
2022/08/19 10:19:32;;;;;;;5.13;2.28;;;;;;;;;;5072093;28;20031;-65
2022/08/19 10:21:57;;;;;;;4.57;2.20;;;;;;;;;;5076130;28;20028;-65
2022/08/19 10:24:24;;;;;;;3.90;1.90;;;;;;;;;;5073639;28;20027;-65
2022/08/19 10:26:49;;;;;;;3.63;2.10;;;;;;;;;;5091049;28;20360;-65
2022/08/19 10:29:15;;;;;;;6.20;2.40;;;;;;;;;;5090278;28;20069;-65
2022/08/19 10:31:41;;;;;;;3.13;2.00;;;;;;;;;;5083297;28;20032;-66
2022/08/19 10:34:06;;;;;;;5.55;2.30;;;;;;;;;;5092160;28;20023;-67
2022/08/19 10:36:35;;;;;;;5.20;2.17;;;;;;;;;;5075996;28;20134;-65
2022/08/19 10:39:02;;;;;;;4.95;2.35;;;;;;;;;;5072013;28;20354;-65
2022/08/19 10:41:29;;;;;;;4.45;2.20;;;;;;;;;;5074280;28;20025;-65
2022/08/19 10:43:56;;;;;;;4.57;2.20;;;;;;;;;;5072231;28;20021;-65
2022/08/19 10:46:23;;;;;;;4.55;2.30;;;;;;;;;;5075879;28;20016;-65
2022/08/19 10:48:48;;;;;;;3.40;2.15;;;;;;;;;;5075679;28;20024;-65
2022/08/19 10:53:58;;;;;;;4.25;1.95;;;;;;;;;;5092015;28;20093;-65
2022/08/19 10:59:08;;;;;;;5.28;2.10;;;;;;;;;;5073841;28;20035;-65
2022/08/19 11:01:34;;;;;;;4.38;2.17;;;;;;;;;;5077516;28;20020;-65
2022/08/19 11:04:01;;;;;;;4.15;2.05;;;;;;;;;;5074586;28;20030;-65
2022/08/19 11:06:26;;;;;;;4.63;1.88;;;;;;;;;;5084208;28;20111;-65
2022/08/19 11:08:53;;;;;;;3.28;1.67;;;;;;;;;;5091772;28;20443;-65
2022/08/19 11:11:18;;;;;;;4.57;2.10;;;;;;;;;;5091516;28;20028;-65
2022/08/19 11:13:45;;;;;;;3.50;2.00;;;;;;;;;;5092079;28;20111;-65
2022/08/19 11:16:16;;;;;;;4.93;1.98;;;;;;;;;;5107238;28;20368;-65
2022/08/19 11:18:42;;;;;;;;;;;;;;;;;;5106469;28;20231;-65
2022/08/19 11:21:11;;;;;;;4.55;2.15;;;;;;;;;;5086652;28;19912;-65
2022/08/19 11:23:37;;;;;;;3.67;1.80;;;;;;;;;;5092109;28;20027;-65
2022/08/19 11:26:02;;;;;;;3.43;1.80;;;;;;;;;;5106010;28;20464;-65
2022/08/19 11:28:28;;;;;;;3.45;1.80;;;;;;;;;;5112239;28;20701;-65
2022/08/19 11:30:53;;;;;;;3.42;1.75;;;;;;;;;;5094649;28;20536;-65
2022/08/19 11:33:18;;;;;;;3.83;1.77;;;;;;;;;;5076374;28;20023;-65
2022/08/19 11:35:44;;;;;;;5.75;2.00;;;;;;;;;;5088594;28;20590;-65
2022/08/19 11:38:09;;;;;;;3.08;1.65;;;;;;;;;;5071083;28;20657;-65
2022/08/19 11:40:34;;;;;;;3.17;1.92;;;;;;;;;;5079771;28;20024;-65
2022/08/19 11:42:59;;;;;;;5.70;1.70;;;;;;;;;;5075728;28;20031;-65
2022/08/19 11:45:26;;;;;;;2.53;1.30;;;;;;;;;;5090277;28;20016;-65
2022/08/19 11:47:51;;;;;;;3.35;1.20;;;;;;;;;;5084669;28;20451;-65
2022/08/19 11:50:17;;;;;;;3.22;1.42;;;;;;;;;;5086756;28;20028;-65
2022/08/19 11:52:44;;;;;;;3.30;1.23;;;;;;;;;;5079182;28;20020;-65
2022/08/19 11:55:10;;;;;;;2.50;1.20;;;;;;;;;;5061857;28;20388;-65
2022/08/19 11:57:35;;;;;;;5.95;1.73;;;;;;;;;;5083908;28;20024;-65
2022/08/19 12:00:02;;;;;;;2.90;1.35;;;;;;;;;;5077714;28;20024;-65
2022/08/19 12:02:27;;;;;;;3.45;1.23;;;;;;;;;;5079820;28;20048;-65
2022/08/19 12:04:53;;;;;;;3.17;1.20;;;;;;;;;;5071725;28;20016;-64
2022/08/19 12:07:18;;;;;;;2.83;1.17;;;;;;;;;;5069298;28;20032;-65
2022/08/19 12:09:44;;;;;;;2.67;1.05;;;;;;;;;;5083561;28;20463;-65
2022/08/19 12:12:09;;;;;;;3.53;1.20;;;;;;;;;;5081028;28;20039;-65
2022/08/19 12:14:35;;;;;;;2.58;1.40;;;;;;;;;;5075243;28;20278;-65
2022/08/19 12:17:01;;;;;;;2.95;1.55;;;;;;;;;;5062239;28;20106;-64
2022/08/19 12:19:26;;;;;;;5.78;1.60;;;;;;;;;;5072953;28;20388;-65
2022/08/19 12:21:55;;;;;;;4.43;1.50;;;;;;;;;;5078041;28;20031;-65
2022/08/19 12:24:22;;;;;;;3.92;1.40;;;;;;;;;;5073956;28;20016;-64
2022/08/19 12:26:48;;;;;;;6.68;1.30;;;;;;;;;;5076593;28;20016;-65
2022/08/19 12:29:14;;;;;;;2.95;1.30;;;;;;;;;;5069429;28;20078;-65
2022/08/19 12:31:39;;;;;;;3.05;1.42;;;;;;;;;;5077657;28;20020;-65
2022/08/19 12:34:04;;;;;;;5.50;1.30;;;;;;;;;;5073744;28;20427;-65
2022/08/19 12:36:29;;;;;;;4.57;1.40;;;;;;;;;;5077917;28;20024;-65
2022/08/19 12:38:57;;;;;;;4.28;1.50;;;;;;;;;;5072256;28;20282;-65
2022/08/19 12:41:22;;;;;;;3.42;1.70;;;;;;;;;;5077217;28;20067;-65
2022/08/19 12:43:49;;;;;;;4.07;1.65;;;;;;;;;;5081659;28;20431;-65
2022/08/19 12:46:14;;;;;;;3.50;1.50;;;;;;;;;;5086168;28;20024;-65
2022/08/19 12:48:42;;;;;;;5.75;1.73;;;;;;;;;;5054538;28;20047;-65
2022/08/19 12:51:09;;;;;;;3.20;1.55;;;;;;;;;;5091333;28;20107;-65
2022/08/19 12:53:35;;;;;;;6.30;2.00;;;;;;;;;;5084481;28;20054;-66
2022/08/19 12:56:00;;;;;;;4.88;1.60;;;;;;;;;;5094120;28;20020;-65
2022/08/19 12:58:26;;;;;;;4.78;1.70;;;;;;;;;;5074799;28;20162;-64
2022/08/19 13:00:52;;;;;;;4.38;1.58;;;;;;;;;;5091585;28;20069;-65
2022/08/19 13:03:17;;;;;;;5.70;1.50;;;;;;;;;;5085471;28;20028;-64
2022/08/19 13:05:42;;;;;;;4.80;1.58;;;;;;;;;;5085325;28;20111;-65
2022/08/19 13:08:08;;;;;;;3.15;1.45;;;;;;;;;;5093109;28;20020;-65
2022/08/19 13:10:34;;;;;;;6.03;1.45;;;;;;;;;;5093957;28;20032;-65
2022/08/19 13:13:01;;;;;;;3.30;1.40;;;;;;;;;;5081285;28;20035;-65
2022/08/19 13:15:28;;;;;;;3.05;1.38;;;;;;;;;;5089780;28;20024;-65
2022/08/19 13:17:55;;;;;;;2.85;1.50;;;;;;;;;;5088837;28;20034;-65
2022/08/19 13:20:21;;;;;;;3.08;1.58;;;;;;;;;;5088026;28;20457;-65
2022/08/19 13:22:47;;;;;;;6.88;1.70;;;;;;;;;;5079219;28;20098;-65
2022/08/19 13:25:13;;;;;;;5.10;1.50;;;;;;;;;;5091566;28;20024;-64
2022/08/19 13:27:39;;;;;;;3.22;1.60;;;;;;;;;;5077988;28;20032;-65
2022/08/19 13:35:33;;;;;;;3.38;1.92;;;;;;;;;;5087026;28;20086;-65
2022/08/19 13:37:58;;;;;;;6.57;1.70;;;;;;;;;;5083123;28;20020;-65
2022/08/19 13:40:26;;;;;;;6.27;1.50;;;;;;;;;;5091165;28;20024;-65
2022/08/19 13:42:52;;;;;;;4.05;1.60;;;;;;;;;;5073281;28;20262;-65
2022/08/19 13:45:19;;;;;;;3.20;1.40;;;;;;;;;;5085091;28;20484;-65
2022/08/19 13:47:48;;;;;;;3.90;1.50;;;;;;;;;;5073347;28;20070;-65
2022/08/19 13:50:15;;;;;;;3.47;1.50;;;;;;;;;;5080246;28;20035;-65
2022/08/19 13:52:41;;;;;;;3.05;1.50;;;;;;;;;;5092474;28;20028;-65
2022/08/19 13:55:07;;;;;;;4.53;1.60;;;;;;;;;;5088109;28;20031;-65
2022/08/19 13:57:33;;;;;;;3.72;1.80;;;;;;;;;;5073300;28;20025;-65
2022/08/19 13:59:58;;;;;;;3.83;1.40;;;;;;;;;;5083308;28;20020;-65
2022/08/19 14:02:24;;;;;;;3.97;1.50;;;;;;;;;;5091353;28;20422;-65
2022/08/19 14:04:49;;;;;;;4.53;1.60;;;;;;;;;;5089640;28;20549;-65
2022/08/19 14:07:14;;;;;;;4.03;1.63;;;;;;;;;;5091779;28;20024;-65
2022/08/19 14:09:39;;;;;;;3.70;1.55;;;;;;;;;;5081582;28;20357;-65
2022/08/19 14:12:05;;;;;;;3.58;1.70;;;;;;;;;;5076501;28;20016;-65
2022/08/19 14:14:30;;;;;;;3.78;1.40;;;;;;;;;;5077485;28;20103;-65
2022/08/19 14:16:55;;;;;;;5.43;1.88;;;;;;;;;;5092310;28;20525;-65
2022/08/19 14:19:21;;;;;;;5.70;1.38;;;;;;;;;;5081954;28;20028;-65
2022/08/19 14:21:46;;;;;;;2.88;1.50;;;;;;;;;;5087210;28;20488;-66
2022/08/19 14:24:11;;;;;;;3.45;1.20;;;;;;;;;;5081767;28;20484;-65
2022/08/19 14:26:37;;;;;;;3.97;1.50;;;;;;;;;;5091121;28;20376;-66
2022/08/19 14:29:02;;;;;;;2.75;1.30;;;;;;;;;;5080860;28;20750;-65
2022/08/19 14:31:27;;;;;;;3.85;1.42;;;;;;;;;;5087706;28;20027;-65
2022/08/19 14:33:52;;;;;;;5.40;1.63;;;;;;;;;;5076589;28;20430;-65
2022/08/19 14:36:20;;;;;;;7.40;1.30;;;;;;;;;;5080998;28;20758;-65
2022/08/19 14:38:45;;;;;;;4.15;1.60;;;;;;;;;;5080178;28;20411;-66
2022/08/19 14:41:12;;;;;;;3.08;1.30;;;;;;;;;;5094156;28;20012;-67
2022/08/19 14:43:38;;;;;;;4.03;1.30;;;;;;;;;;5092239;28;20016;-66
2022/08/19 14:46:04;;;;;;;2.92;1.27;;;;;;;;;;5075762;28;20051;-69
2022/08/19 14:48:29;;;;;;;4.38;1.40;;;;;;;;;;5086358;28;20024;-66
2022/08/19 14:50:54;;;;;;;3.38;1.25;;;;;;;;;;5080273;28;20070;-66